TSP Talk
logout   logout
Contact Us | Logout
     
February 20, 2017, 6:36 am (ET / EDT)
TSP Talk Market Comments TSP AutoTracker Premiums Site Map TSP Funds Forum Returns

                 
Tracker Main Menu | Tracker Member Menu | My IFT Records | How to Get Started | Email Updates
                 

Press Go back to the previous page

Find Member:

Members returns analysis as of COB: 2017-02-17

 
** This list DOES NOT include the accounts of Premium Service Members **
Premium Service Members can login and view the full list here... Full List

Underlined column headings can be sorted | Why is my IFT count off by 1? View Premium Service Returns (thru 01-31-2017)
Rank Username YTD Returns Daily Returns WTD returns MTD Returns QTD Returns Start Date
1 LAT 7.04 % 0.14 % 0.97 % 2.96 % 7.04 % 2017-01-01
2 GenStar 6.65 % 0.14 % 0.96 % 3.26 % 6.65 % 2017-01-01
3 bdmkg 6.57 % 0.16 % 1.50 % 3.21 % 6.57 % 2017-01-01
4 bkc2a 6.44 % 0.14 % 0.97 % 2.96 % 6.44 % 2017-01-01
5 Mista_Magee 6.12 % 0.10 % 0.96 % 2.81 % 6.12 % 2017-01-01
6 retire15 6.08 % 0.14 % 0.97 % 3.23 % 6.08 % 2017-01-01
7 texcc 5.94 % 0.14 % 0.97 % 2.96 % 5.94 % 2017-01-01
8 3days 5.63 % 0.14 % 0.97 % 2.04 % 5.63 % 2017-01-01
9 bjean 5.60 % 0.14 % -0.01 % 1.13 % 5.60 % 2017-01-01
10 smitmw 5.59 % 0.01 % 0.83 % 3.36 % 5.59 % 2017-01-01
11 Aviator_Guy 5.57 % 0.16 % 0.99 % 2.80 % 5.57 % 2017-01-01
12 Jayeks 5.55 % 0.14 % 0.97 % 2.59 % 5.55 % 2017-01-01
13 ILoveTDs 5.54 % 0.14 % 0.97 % 2.96 % 5.54 % 2017-01-01
14 BigJohn 5.50 % 0.01 % 0.32 % 2.30 % 5.50 % 2017-01-01
15 cmccall661 5.43 % 0.14 % 0.97 % 2.96 % 5.43 % 2017-01-01
16 maverick06 5.41 % 0.16 % 1.41 % 3.24 % 5.41 % 2017-01-01
17 dave 5.39 % 0.14 % 0.97 % 2.96 % 5.39 % 2017-01-01
18 kraplrak 5.36 % 0.01 % 0.89 % 2.21 % 5.36 % 2017-01-01
19 tom1tom1 5.34 % -0.25 % 0.86 % 1.41 % 5.34 % 2017-01-01
20 xsoljuhxpnoi929 5.32 % 0.17 % 1.60 % 3.36 % 5.32 % 2017-01-01
21 BigMike 5.32 % 0.17 % 1.60 % 3.36 % 5.32 % 2017-01-01
22 C-fund 5.32 % 0.17 % 1.60 % 3.36 % 5.32 % 2017-01-01
23 berg1315 5.32 % 0.17 % 1.60 % ** 3.36 % 5.32 % 2017-01-01
24 Kayakfish 5.32 % 0.17 % 1.60 % ** 3.36 % 5.32 % 2017-01-01
25 JTH 5.32 % 0.17 % 1.60 % ** 3.36 % 5.32 % 2017-01-01
26 JTH-ALPAFS 5.32 % 0.17 % 1.60 % ** 3.36 % 5.32 % 2017-01-01
27 JTH-ESD 5.32 % 0.17 % 1.60 % ** 3.36 % 5.32 % 2017-01-01
28 MMAC_POPS 5.32 % 0.17 % 1.60 % ** 3.36 % 5.32 % 2017-01-01
29 cthomas946 5.32 % 0.17 % 1.60 % ** 3.36 % 5.32 % 2017-01-01
30 agogley 5.32 % 0.17 % 1.60 % ** 3.36 % 5.32 % 2017-01-01
31 ken863 5.32 % 0.17 % 1.60 % ** 3.36 % 5.32 % 2017-01-01
32 brobrash 5.32 % 0.17 % 1.60 % ** 3.36 % 5.32 % 2017-01-01
33 ranma143 5.32 % 0.17 % 1.60 % ** 3.36 % 5.32 % 2017-01-01
34 Lucky91 5.32 % 0.17 % 1.60 % ** 3.36 % 5.32 % 2017-01-01
35 Mack-Daddy 5.32 % 0.17 % 1.60 % ** 3.36 % 5.32 % 2017-01-01
36 Sarchie 5.32 % 0.17 % 1.60 % ** 3.36 % 5.32 % 2017-01-01
37 Devilduck 5.32 % 0.17 % 1.60 % ** 3.36 % 5.32 % 2017-01-01
38 HotRod 5.32 % 0.17 % 1.60 % ** 3.36 % 5.32 % 2017-01-01
39 Jrgruters42 5.32 % 0.17 % 1.60 % ** 3.36 % 5.32 % 2017-01-01
40 BLPinDC 5.32 % 0.17 % 1.60 % ** 3.36 % 5.32 % 2017-01-01
41 CheckRaze 5.32 % 0.17 % 1.60 % ** 3.36 % 5.32 % 2017-01-01
42 Heisenberg 5.32 % 0.17 % 1.60 % ** 3.36 % 5.32 % 2017-01-01
43 jssmith58 5.32 % 0.17 % 1.60 % ** 3.36 % 5.32 % 2017-01-01
44 leadoff2 5.32 % 0.17 % 1.60 % ** 3.36 % 5.32 % 2017-01-01
45 MadMoneyJesse 5.32 % 0.17 % 1.60 % ** 3.36 % 5.32 % 2017-01-01
46 melandblue 5.32 % 0.17 % 1.60 % ** 3.36 % 5.32 % 2017-01-01
47 mepage 5.32 % 0.17 % 1.60 % ** 3.36 % 5.32 % 2017-01-01
48 messimoves 5.32 % 0.17 % 1.60 % ** 3.36 % 5.32 % 2017-01-01
49 MOVINUP 5.32 % 0.17 % 1.60 % ** 3.36 % 5.32 % 2017-01-01
50 pcola5625 5.32 % 0.17 % 1.60 % ** 3.36 % 5.32 % 2017-01-01
Rank Username YTD Returns Daily Returns WTD returns MTD Returns QTD Returns Start Date
51 ShadowAx 5.32 % 0.17 % 1.60 % ** 3.36 % 5.32 % 2017-01-01
52 Sirius 5.32 % 0.17 % 1.60 % ** 3.36 % 5.32 % 2017-01-01
53 squid3326 5.32 % 0.17 % 1.60 % ** 3.36 % 5.32 % 2017-01-01
54 TheRealEDtheFED 5.32 % 0.17 % 1.60 % ** 3.36 % 5.32 % 2017-01-01
55 martycox88 5.31 % 0.14 % 0.97 % 2.96 % 5.31 % 2017-01-01
56 vexter 5.29 % 0.14 % 1.57 % 3.33 % 5.29 % 2017-01-01
57 almostdone 5.29 % 0.16 % 1.45 % ** 3.26 % 5.29 % 2017-01-01
58 bcf0514 5.29 % 0.16 % 1.44 % ** 3.26 % 5.29 % 2017-01-01
59 glysergt 5.28 % 0.16 % 1.41 % 3.24 % 5.28 % 2017-01-01
60 Craigart 5.28 % 0.16 % 1.41 % ** 3.24 % 5.28 % 2017-01-01
61 GWXX 5.28 % 0.16 % 1.41 % ** 3.24 % 5.28 % 2017-01-01
62 sjcook23 5.27 % -0.04 % 1.23 % 3.05 % 5.27 % 2017-01-01
63 rookiecsi 5.27 % 0.14 % 0.97 % 2.96 % 5.27 % 2017-01-01
64 trobbi33 5.27 % 0.16 % 1.38 % 3.22 % 5.27 % 2017-01-01
65 Widget 5.27 % 0.16 % 1.35 % ** 3.20 % 5.27 % 2017-01-01
66 garrisoco 5.27 % 0.16 % 1.35 % ** 3.20 % 5.27 % 2017-01-01
67 Piniquim 5.27 % 0.16 % 1.35 % ** 3.20 % 5.27 % 2017-01-01
68 shagerty 5.27 % 0.16 % 1.35 % ** 3.20 % 5.27 % 2017-01-01
69 Total_US_Market 5.27 % 0.16 % 1.35 % ** 3.20 % 5.27 % 2017-01-01
70 rotti 5.27 % 0.16 % 1.35 % ** 3.20 % 5.27 % 2017-01-01
71 dcmorgan 5.27 % 0.16 % 1.35 % ** 3.20 % 5.27 % 2017-01-01
72 Scarfinger68 5.26 % 0.16 % 1.35 % 3.20 % 5.26 % 2017-01-01
73 Boots22 5.26 % 0.16 % 1.35 % ** 3.20 % 5.26 % 2017-01-01
74 DakotaKid 5.26 % 0.16 % 1.34 % ** 3.20 % 5.26 % 2017-01-01
75 Rod 5.26 % 0.16 % 1.33 % ** 3.19 % 5.26 % 2017-01-01
76 packerbart 5.25 % 0.15 % 1.28 % 3.16 % 5.25 % 2017-01-01
77 Sandbagger6 5.25 % 0.16 % 1.28 % 3.16 % 5.25 % 2017-01-01
78 silver2828 5.25 % 0.16 % 1.28 % 3.16 % 5.25 % 2017-01-01
79 OhioOkie 5.25 % 0.15 % 1.28 % 3.15 % 5.25 % 2017-01-01
80 rangerray 5.25 % 0.15 % 1.28 % 3.16 % 5.25 % 2017-01-01
81 jamilaunc 5.25 % 0.16 % 1.28 % 3.16 % 5.25 % 2017-01-01
82 25or6to4 5.25 % 0.15 % 1.28 % 3.16 % 5.25 % 2017-01-01
83 TSP-roulette 5.25 % 0.15 % 1.27 % 3.15 % 5.25 % 2017-01-01
84 evob 5.25 % 0.16 % 1.28 % 3.16 % 5.25 % 2017-01-01
85 arhodie 5.25 % 0.16 % 1.28 % 3.16 % 5.25 % 2017-01-01
86 Viva_La_Migra 5.25 % 0.16 % 1.28 % 3.16 % 5.25 % 2017-01-01
87 dunedad 5.25 % 0.16 % 1.28 % 3.16 % 5.25 % 2017-01-01
88 CapnEddie 5.25 % 0.14 % 0.97 % 2.96 % 5.25 % 2017-01-01
89 OBGibby 5.25 % 0.16 % 1.28 % 3.16 % 5.25 % 2017-01-01
90 pcalderin 5.25 % 0.16 % 1.29 % 3.16 % 5.25 % 2017-01-01
91 Bfejeran 5.25 % 0.16 % 1.28 % 3.16 % 5.25 % 2017-01-01
92 Class 5.25 % 0.16 % 1.28 % ** 3.16 % 5.25 % 2017-01-01
93 SPN46er 5.25 % 0.16 % 1.29 % ** 3.16 % 5.25 % 2017-01-01
94 SSJodon 5.25 % 0.16 % 1.28 % ** 3.16 % 5.25 % 2017-01-01
95 inyadreems 5.25 % 0.15 % 1.28 % ** 3.15 % 5.25 % 2017-01-01
96 poolman 5.25 % 0.16 % 1.28 % ** 3.16 % 5.25 % 2017-01-01
97 RWJorg 5.25 % 0.16 % 1.29 % ** 3.16 % 5.25 % 2017-01-01
98 goforit 5.25 % 0.15 % 1.27 % ** 3.15 % 5.25 % 2017-01-01
99 kbennet1 5.25 % 0.15 % 1.28 % ** 3.15 % 5.25 % 2017-01-01
100 8_percent 5.25 % 0.15 % 1.28 % ** 3.15 % 5.25 % 2017-01-01
Rank Username YTD Returns Daily Returns WTD returns MTD Returns QTD Returns Start Date
101 scubasteve1 5.25 % 0.15 % 1.27 % ** 3.15 % 5.25 % 2017-01-01
102 tlap612 5.25 % 0.15 % 1.27 % ** 3.15 % 5.25 % 2017-01-01
103 MYDOGZCUTE 5.25 % 0.15 % 1.27 % ** 3.15 % 5.25 % 2017-01-01
104 rossbrian00 5.25 % 0.15 % 1.27 % ** 3.15 % 5.25 % 2017-01-01
105 elufints 5.25 % 0.15 % 1.28 % ** 3.15 % 5.25 % 2017-01-01
106 JG2017 5.25 % 0.15 % 1.27 % ** 3.15 % 5.25 % 2017-01-01
107 Stony 5.25 % 0.15 % 1.27 % ** 3.15 % 5.25 % 2017-01-01
108 surftec 5.25 % 0.15 % 1.28 % ** 3.15 % 5.25 % 2017-01-01
109 RAMORIPKIN 5.25 % 0.15 % 1.28 % ** 3.16 % 5.25 % 2017-01-01
110 Rumpelstilzchen 5.25 % 0.16 % 1.29 % ** 3.16 % 5.25 % 2017-01-01
111 tgun 5.25 % 0.15 % 1.28 % ** 3.15 % 5.25 % 2017-01-01
112 vbbikerbums 5.25 % 0.16 % 1.29 % ** 3.16 % 5.25 % 2017-01-01
113 SkyPilot 5.25 % 0.15 % 1.28 % ** 3.16 % 5.25 % 2017-01-01
114 MoneyManager 5.25 % 0.16 % 1.30 % ** 3.17 % 5.25 % 2017-01-01
115 KneednDough 5.25 % 0.16 % 1.29 % ** 3.16 % 5.25 % 2017-01-01
116 bettertrader 5.25 % 0.16 % 1.28 % ** 3.16 % 5.25 % 2017-01-01
117 bubba71842 5.25 % 0.15 % 1.28 % ** 3.16 % 5.25 % 2017-01-01
118 Ddarko 5.25 % 0.16 % 1.29 % ** 3.16 % 5.25 % 2017-01-01
119 divemonkey 5.25 % 0.15 % 1.28 % ** 3.16 % 5.25 % 2017-01-01
120 future 5.25 % 0.16 % 1.28 % ** 3.16 % 5.25 % 2017-01-01
121 HocusPocus 5.25 % 0.16 % 1.29 % ** 3.16 % 5.25 % 2017-01-01
122 jpaulhus 5.25 % 0.16 % 1.29 % ** 3.16 % 5.25 % 2017-01-01
123 Raxser 5.25 % 0.16 % 1.28 % ** 3.16 % 5.25 % 2017-01-01
124 retire2017 5.25 % 0.16 % 1.29 % ** 3.16 % 5.25 % 2017-01-01
125 SuzinCity 5.25 % 0.16 % 1.29 % ** 3.16 % 5.25 % 2017-01-01
126 tmntrc56 5.25 % 0.15 % 1.26 % ** 3.14 % 5.25 % 2017-01-01
127 valions15 5.25 % 0.16 % 1.29 % ** 3.16 % 5.25 % 2017-01-01
128 Lucas123 5.25 % 0.16 % 1.28 % ** 3.16 % 5.25 % 2017-01-01
129 weigerber55 5.25 % 0.16 % 1.29 % ** 3.16 % 5.25 % 2017-01-01
130 rivs 5.25 % 0.16 % 1.29 % ** 3.16 % 5.25 % 2017-01-01
131 drgonzo58 5.25 % 0.16 % 1.29 % ** 3.16 % 5.25 % 2017-01-01
132 sparty83 5.24 % 0.15 % 1.22 % 3.12 % 5.24 % 2017-01-01
133 SKIPPER 5.24 % 0.16 % 1.28 % 3.45 % 5.24 % 2017-01-01
134 Niner49er52 5.24 % 0.15 % 1.22 % ** 3.12 % 5.24 % 2017-01-01
135 Wizard_of_Oz 5.24 % 0.15 % 1.25 % ** 3.14 % 5.24 % 2017-01-01
136 1Mech 5.24 % 0.15 % 1.22 % ** 3.12 % 5.24 % 2017-01-01
137 puppylove 5.24 % 0.15 % 1.24 % ** 3.13 % 5.24 % 2017-01-01
138 rwwjr65 5.24 % 0.15 % 1.21 % ** 3.11 % 5.24 % 2017-01-01
139 kibey84 5.24 % 0.15 % 1.21 % ** 3.12 % 5.24 % 2017-01-01
140 TSPBrett 5.24 % 0.15 % 1.22 % ** 3.12 % 5.24 % 2017-01-01
141 DoughBoy 5.24 % 0.15 % 1.21 % ** 3.12 % 5.24 % 2017-01-01
142 Gain10 5.24 % 0.15 % 1.22 % ** 3.12 % 5.24 % 2017-01-01
143 joharo 5.24 % 0.15 % 1.23 % ** 3.12 % 5.24 % 2017-01-01
144 Benny7563 5.23 % 0.15 % 1.26 % 3.12 % 5.23 % 2017-01-01
145 itsRaining 5.23 % 0.15 % 1.21 % ** 3.11 % 5.23 % 2017-01-01
146 pdug 5.22 % 0.15 % 1.13 % 3.06 % 5.22 % 2017-01-01
147 Tubman83 5.22 % 0.15 % 1.16 % 3.08 % 5.22 % 2017-01-01
148 jsmiles 5.22 % 0.15 % 1.15 % 2.85 % 5.22 % 2017-01-01
149 smiles 5.22 % 0.15 % 1.15 % 2.85 % 5.22 % 2017-01-01
150 Unmanned 5.22 % 0.15 % 1.16 % 3.08 % 5.22 % 2017-01-01
Rank Username YTD Returns Daily Returns WTD returns MTD Returns QTD Returns Start Date
151 EricDeLee 5.22 % 0.15 % 1.15 % 3.08 % 5.22 % 2017-01-01
152 Bullseye 5.22 % 0.15 % 1.13 % 3.06 % 5.22 % 2017-01-01
153 Barney 5.22 % 0.15 % 1.13 % ** 3.06 % 5.22 % 2017-01-01
154 revel 5.22 % 0.15 % 1.16 % ** 3.08 % 5.22 % 2017-01-01
155 stacks 5.22 % 0.15 % 1.16 % ** 3.08 % 5.22 % 2017-01-01
156 Kafkaesquee 5.22 % 0.15 % 1.15 % ** 3.07 % 5.22 % 2017-01-01
157 invisiblebutterknife 5.22 % 0.13 % 1.47 % ** 3.15 % 5.22 % 2017-01-01
158 Burt 5.22 % 0.15 % 1.13 % ** 3.06 % 5.22 % 2017-01-01
159 savagemojo 5.22 % 0.15 % 1.13 % ** 3.06 % 5.22 % 2017-01-01
160 Awsum_Al 5.22 % 0.15 % 1.16 % ** 3.08 % 5.22 % 2017-01-01
161 Sign_Stealer 5.21 % 0.14 % 0.97 % 2.96 % 5.21 % 2017-01-01
162 markopolno12 5.21 % 0.15 % 1.09 % ** 3.04 % 5.21 % 2017-01-01
163 Skooby 5.20 % 0.15 % 1.23 % 3.11 % 5.20 % 2017-01-01
164 SWAVET 5.19 % 0.14 % 0.97 % 2.96 % 5.19 % 2017-01-01
165 WallStreet 5.19 % 0.12 % 1.36 % ** 3.06 % 5.19 % 2017-01-01
166 rbizz 5.18 % 0.14 % 0.97 % 2.96 % 5.18 % 2017-01-01
167 Shamus13 5.18 % 0.14 % 0.97 % 2.96 % 5.18 % 2017-01-01
168 48cj2a 5.18 % 0.14 % 0.97 % 2.96 % 5.18 % 2017-01-01
169 freemanick 5.18 % 0.14 % 0.97 % 2.96 % 5.18 % 2017-01-01
170 marco59 5.18 % 0.14 % 0.97 % 2.96 % 5.18 % 2017-01-01
171 phlames 5.18 % 0.14 % 0.97 % 2.96 % 5.18 % 2017-01-01
172 TXTornados 5.18 % 0.14 % 0.97 % 2.96 % 5.18 % 2017-01-01
173 Christopher 5.18 % 0.14 % 0.97 % 2.96 % 5.18 % 2017-01-01
174 craigerv 5.18 % 0.14 % 0.97 % 2.96 % 5.18 % 2017-01-01
175 jmtz54 5.18 % 0.14 % 0.97 % 2.96 % 5.18 % 2017-01-01
176 40calSue 5.18 % 0.14 % 0.97 % 2.96 % 5.18 % 2017-01-01
177 Brinky 5.18 % 0.14 % 0.97 % 2.96 % 5.18 % 2017-01-01
178 rothnroll 5.18 % 0.14 % 0.97 % 2.96 % 5.18 % 2017-01-01
179 steve10608 5.18 % 0.14 % 0.97 % 2.96 % 5.18 % 2017-01-01
180 ckeiththeman 5.18 % 0.14 % 0.97 % 2.96 % 5.18 % 2017-01-01
181 krash9561 5.18 % 0.14 % 0.97 % 2.96 % 5.18 % 2017-01-01
182 Babygirl07 5.18 % 0.14 % 0.97 % 2.96 % 5.18 % 2017-01-01
183 ArchAngel 5.18 % 0.14 % 0.97 % 2.96 % 5.18 % 2017-01-01
184 chemmie 5.18 % 0.14 % 0.97 % 2.96 % 5.18 % 2017-01-01
185 KyFan1 5.18 % 0.14 % 0.97 % 2.96 % 5.18 % 2017-01-01
186 LMBF1-CI>S 5.18 % 0.14 % 0.97 % 2.96 % 5.18 % 2017-01-01
187 TraderJane 5.18 % 0.14 % 0.97 % 2.96 % 5.18 % 2017-01-01
188 madchili 5.18 % 0.14 % 0.97 % 2.96 % 5.18 % 2017-01-01
189 Damndogs 5.18 % 0.14 % 0.97 % 2.96 % 5.18 % 2017-01-01
190 JVC1979 5.18 % 0.14 % 0.97 % 2.96 % 5.18 % 2017-01-01
191 UCFVern 5.18 % 0.14 % 0.97 % 2.96 % 5.18 % 2017-01-01
192 radarvector 5.18 % 0.14 % 0.97 % 2.96 % 5.18 % 2017-01-01
193 a1sauce 5.18 % 0.14 % 0.97 % 2.96 % 5.18 % 2017-01-01
194 moneymikem 5.18 % 0.14 % 0.97 % 2.96 % 5.18 % 2017-01-01
195 BrkBred247 5.18 % 0.14 % 0.97 % 2.96 % 5.18 % 2017-01-01
196 Peteylaw06 5.18 % 0.14 % 0.97 % 2.96 % 5.18 % 2017-01-01
197 ccarrolls 5.18 % 0.14 % 0.97 % 2.96 % 5.18 % 2017-01-01
198 kcfz0t 5.18 % 0.14 % 0.97 % 2.96 % 5.18 % 2017-01-01
199 MaStA 5.18 % 0.14 % 0.97 % 2.96 % 5.18 % 2017-01-01
200 philcam 5.18 % 0.14 % 0.97 % 2.96 % 5.18 % 2017-01-01
Rank Username YTD Returns Daily Returns WTD returns MTD Returns QTD Returns Start Date
201 SPOT_LT 5.18 % 0.14 % 0.97 % 2.96 % 5.18 % 2017-01-01
202 ttn 5.18 % 0.14 % 0.97 % 2.96 % 5.18 % 2017-01-01
203 S-fund 5.18 % 0.14 % 0.97 % 2.96 % 5.18 % 2017-01-01
204 caseyd8s 5.18 % 0.14 % 0.97 % 2.96 % 5.18 % 2017-01-01
205 jmartello 5.18 % 0.14 % 0.97 % 2.96 % 5.18 % 2017-01-01
206 n.shift 5.18 % 0.14 % 0.97 % 2.96 % 5.18 % 2017-01-01
207 b52vqn 5.18 % 0.14 % 0.97 % 2.96 % 5.18 % 2017-01-01
208 mikepriest 5.18 % 0.14 % 0.97 % 2.96 % 5.18 % 2017-01-01
209 Cactus 5.18 % 0.14 % 0.97 % ** 2.96 % 5.18 % 2017-01-01
210 Cashflow911 5.18 % 0.14 % 0.97 % ** 2.96 % 5.18 % 2017-01-01
211 FatMan 5.18 % 0.14 % 0.97 % ** 2.96 % 5.18 % 2017-01-01
212 Reggie0622 5.18 % 0.14 % 0.97 % ** 2.96 % 5.18 % 2017-01-01
213 jwblanfo 5.18 % 0.14 % 0.97 % ** 2.96 % 5.18 % 2017-01-01
214 RX-7 5.18 % 0.14 % 0.97 % ** 2.96 % 5.18 % 2017-01-01
215 Bullet 5.18 % 0.14 % 0.97 % ** 2.96 % 5.18 % 2017-01-01
216 mxtwo50r 5.18 % 0.14 % 0.97 % ** 2.96 % 5.18 % 2017-01-01
217 dseery3 5.18 % 0.14 % 0.97 % ** 2.96 % 5.18 % 2017-01-01
218 jerodt 5.18 % 0.14 % 0.97 % ** 2.96 % 5.18 % 2017-01-01
219 soupyBeard 5.18 % 0.14 % 0.97 % ** 2.96 % 5.18 % 2017-01-01
220 spantzer 5.18 % 0.14 % 0.97 % ** 2.96 % 5.18 % 2017-01-01
221 HarleyLar 5.18 % 0.14 % 0.97 % ** 2.96 % 5.18 % 2017-01-01
222 jbvollmer 5.18 % 0.14 % 0.97 % ** 2.96 % 5.18 % 2017-01-01
223 adestonobis 5.18 % 0.14 % 0.97 % ** 2.96 % 5.18 % 2017-01-01
224 bylow-cellhi 5.18 % 0.14 % 0.97 % ** 2.96 % 5.18 % 2017-01-01
225 kodaq2001 5.18 % 0.14 % 0.97 % ** 2.96 % 5.18 % 2017-01-01
226 thinkman 5.18 % 0.14 % 0.97 % ** 2.96 % 5.18 % 2017-01-01
227 coop65 5.18 % 0.14 % 0.97 % ** 2.96 % 5.18 % 2017-01-01
228 sdidieu 5.18 % 0.11 % 1.49 % ** 3.07 % 5.18 % 2017-01-01
229 canmannc 5.18 % 0.14 % 0.97 % ** 2.96 % 5.18 % 2017-01-01
230 geargirl 5.18 % 0.14 % 0.97 % ** 2.96 % 5.18 % 2017-01-01
231 captjamied 5.18 % 0.14 % 0.97 % ** 2.96 % 5.18 % 2017-01-01
232 Bettinainc 5.18 % 0.14 % 0.97 % ** 2.96 % 5.18 % 2017-01-01
233 Woodys_World 5.18 % 0.14 % 0.97 % ** 2.96 % 5.18 % 2017-01-01
234 jetjammr 5.18 % 0.14 % 0.97 % ** 2.96 % 5.18 % 2017-01-01
235 68chevy 5.18 % 0.14 % 0.97 % ** 2.96 % 5.18 % 2017-01-01
236 G-Money 5.18 % 0.14 % 0.97 % ** 2.96 % 5.18 % 2017-01-01
237 sythbpr 5.18 % 0.14 % 0.97 % ** 2.96 % 5.18 % 2017-01-01
238 nightman 5.18 % 0.14 % 0.97 % ** 2.96 % 5.18 % 2017-01-01
239 Aiagib 5.18 % 0.14 % 0.97 % ** 2.96 % 5.18 % 2017-01-01
240 MahiChaser 5.18 % 0.14 % 0.97 % ** 2.96 % 5.18 % 2017-01-01
241 eshore07 5.18 % 0.14 % 0.97 % ** 2.96 % 5.18 % 2017-01-01
242 ILTDtechnical 5.18 % 0.14 % 0.97 % ** 2.96 % 5.18 % 2017-01-01
243 Sensei 5.18 % 0.14 % 0.97 % ** 2.96 % 5.18 % 2017-01-01
244 scaredstiff 5.18 % 0.14 % 0.97 % ** 2.96 % 5.18 % 2017-01-01
245 rallythis 5.18 % 0.14 % 0.97 % ** 2.96 % 5.18 % 2017-01-01
246 workdamnit 5.18 % 0.12 % 1.30 % ** 3.03 % 5.18 % 2017-01-01
247 kleios 5.18 % 0.14 % 0.97 % ** 2.96 % 5.18 % 2017-01-01
248 walterramjet 5.18 % 0.14 % 0.97 % ** 2.96 % 5.18 % 2017-01-01
249 RabbiTuckman 5.18 % 0.14 % 0.97 % ** 2.96 % 5.18 % 2017-01-01
250 Dexter 5.18 % 0.14 % 0.97 % ** 2.96 % 5.18 % 2017-01-01
Rank Username YTD Returns Daily Returns WTD returns MTD Returns QTD Returns Start Date
251 gronk007 5.18 % 0.14 % 0.97 % ** 2.96 % 5.18 % 2017-01-01
252 BReine13 5.18 % 0.14 % 0.97 % ** 2.96 % 5.18 % 2017-01-01
253 DylanFan 5.18 % 0.14 % 0.97 % ** 2.96 % 5.18 % 2017-01-01
254 mollshark 5.18 % 0.14 % 0.97 % ** 2.96 % 5.18 % 2017-01-01
255 recki13 5.18 % 0.14 % 0.97 % ** 2.96 % 5.18 % 2017-01-01
256 kawzman 5.18 % 0.14 % 0.97 % ** 2.96 % 5.18 % 2017-01-01
257 NavyEng 5.18 % 0.14 % 0.97 % ** 2.96 % 5.18 % 2017-01-01
258 NiteFlyer 5.18 % 0.14 % 0.97 % ** 2.96 % 5.18 % 2017-01-01
259 sniper 5.18 % 0.14 % 0.97 % ** 2.96 % 5.18 % 2017-01-01
260 Uptrend 5.18 % 0.14 % 0.97 % ** 2.96 % 5.18 % 2017-01-01
261 Legend 5.18 % 0.14 % 0.97 % ** 2.96 % 5.18 % 2017-01-01
262 Hank2 5.18 % 0.14 % 0.97 % ** 2.96 % 5.18 % 2017-01-01
263 barryc 5.18 % 0.14 % 0.97 % ** 2.96 % 5.18 % 2017-01-01
264 HookemDanno 5.18 % 0.14 % 0.97 % ** 2.96 % 5.18 % 2017-01-01
265 vdubya 5.18 % 0.14 % 0.97 % ** 2.96 % 5.18 % 2017-01-01
266 Dave98 5.18 % 0.14 % 0.97 % ** 2.96 % 5.18 % 2017-01-01
267 applejack 5.18 % 0.14 % 0.97 % ** 2.96 % 5.18 % 2017-01-01
268 D_Brown 5.18 % 0.14 % 0.97 % ** 2.96 % 5.18 % 2017-01-01
269 Piesanders 5.18 % 0.14 % 0.97 % ** 2.96 % 5.18 % 2017-01-01
270 uphan 5.18 % 0.14 % 0.97 % ** 2.96 % 5.18 % 2017-01-01
271 Cmarq2k2 5.18 % 0.14 % 0.97 % ** 2.96 % 5.18 % 2017-01-01
272 ReverendHerc 5.18 % 0.14 % 0.97 % ** 2.96 % 5.18 % 2017-01-01
273 antauz 5.18 % 0.14 % 0.97 % ** 2.96 % 5.18 % 2017-01-01
274 horseman 5.18 % 0.14 % 0.97 % ** 2.96 % 5.18 % 2017-01-01
275 Racerx919 5.18 % 0.14 % 0.97 % ** 2.96 % 5.18 % 2017-01-01
276 SPUR 5.18 % 0.14 % 0.97 % ** 2.96 % 5.18 % 2017-01-01
277 uscs344 5.18 % 0.14 % 0.97 % ** 2.96 % 5.18 % 2017-01-01
278 1953greg 5.18 % 0.14 % 0.97 % ** 2.96 % 5.18 % 2017-01-01
279 5hundy 5.18 % 0.14 % 0.97 % ** 2.96 % 5.18 % 2017-01-01
280 accountant02130 5.18 % 0.14 % 0.97 % ** 2.96 % 5.18 % 2017-01-01
281 albwrong 5.18 % 0.14 % 0.97 % ** 2.96 % 5.18 % 2017-01-01
282 andercee 5.18 % 0.14 % 0.97 % ** 2.96 % 5.18 % 2017-01-01
283 Asylum 5.18 % 0.14 % 0.97 % ** 2.96 % 5.18 % 2017-01-01
284 barb41048 5.18 % 0.14 % 0.97 % ** 2.96 % 5.18 % 2017-01-01
285 BichonFreeze 5.18 % 0.14 % 0.97 % ** 2.96 % 5.18 % 2017-01-01
286 bigcat61 5.18 % 0.14 % 0.97 % ** 2.96 % 5.18 % 2017-01-01
287 bluecrab 5.18 % 0.14 % 0.97 % ** 2.96 % 5.18 % 2017-01-01
288 bobmarley753 5.18 % 0.14 % 0.97 % ** 2.96 % 5.18 % 2017-01-01
289 BP171 5.18 % 0.14 % 0.97 % ** 2.96 % 5.18 % 2017-01-01
290 Bravos_Time! 5.18 % 0.14 % 0.97 % ** 2.96 % 5.18 % 2017-01-01
291 bucket 5.18 % 0.14 % 0.97 % ** 2.96 % 5.18 % 2017-01-01
292 ccharsh22 5.18 % 0.14 % 0.97 % ** 2.96 % 5.18 % 2017-01-01
293 Dalz 5.18 % 0.14 % 0.97 % ** 2.96 % 5.18 % 2017-01-01
294 Dartman 5.18 % 0.14 % 0.97 % ** 2.96 % 5.18 % 2017-01-01
295 delldell 5.18 % 0.14 % 0.97 % ** 2.96 % 5.18 % 2017-01-01
296 dojdave 5.18 % 0.14 % 0.97 % ** 2.96 % 5.18 % 2017-01-01
297 DonKeyhote 5.18 % 0.14 % 0.97 % ** 2.96 % 5.18 % 2017-01-01
298 Dsots 5.18 % 0.14 % 0.97 % ** 2.96 % 5.18 % 2017-01-01
299 elinca 5.18 % 0.14 % 0.97 % ** 2.96 % 5.18 % 2017-01-01
300 engr_villa 5.18 % 0.14 % 0.97 % ** 2.96 % 5.18 % 2017-01-01
Rank Username YTD Returns Daily Returns WTD returns MTD Returns QTD Returns Start Date
301 ericwinn 5.18 % 0.14 % 0.97 % ** 2.96 % 5.18 % 2017-01-01
302 FISHHEADS 5.18 % 0.14 % 0.97 % ** 2.96 % 5.18 % 2017-01-01
303 flipman 5.18 % 0.14 % 0.97 % ** 2.96 % 5.18 % 2017-01-01
304 gagobutos 5.18 % 0.14 % 0.97 % ** 2.96 % 5.18 % 2017-01-01
305 gdraft 5.18 % 0.14 % 0.97 % ** 2.96 % 5.18 % 2017-01-01
306 hardyandtiny 5.18 % 0.14 % 0.97 % ** 2.96 % 5.18 % 2017-01-01
307 Howanic 5.18 % 0.14 % 0.97 % ** 2.96 % 5.18 % 2017-01-01
308 Jagman26 5.18 % 0.14 % 0.97 % ** 2.96 % 5.18 % 2017-01-01
309 Jaygoots 5.18 % 0.14 % 0.97 % ** 2.96 % 5.18 % 2017-01-01
310 Jimmys_Girl 5.18 % 0.14 % 0.97 % ** 2.96 % 5.18 % 2017-01-01
311 Kotcha 5.18 % 0.12 % 1.22 % ** 3.01 % 5.18 % 2017-01-01
312 Kylee 5.18 % 0.14 % 0.97 % ** 2.96 % 5.18 % 2017-01-01
313 ldrltjg 5.18 % 0.14 % 0.97 % ** 2.96 % 5.18 % 2017-01-01
314 lestampoc 5.18 % 0.14 % 0.97 % ** 2.96 % 5.18 % 2017-01-01
315 liquidh2o 5.18 % 0.14 % 0.97 % ** 2.96 % 5.18 % 2017-01-01
316 Magic 5.18 % 0.14 % 0.97 % ** 2.96 % 5.18 % 2017-01-01
317 marcusg 5.18 % 0.14 % 0.97 % ** 2.96 % 5.18 % 2017-01-01
318 martypantsss 5.18 % 0.14 % 0.97 % ** 2.96 % 5.18 % 2017-01-01
319 mikrodojr 5.18 % 0.14 % 0.97 % ** 2.96 % 5.18 % 2017-01-01
320 minhan_1408 5.18 % 0.14 % 0.97 % ** 2.96 % 5.18 % 2017-01-01
321 mrfishing 5.18 % 0.14 % 0.97 % ** 2.96 % 5.18 % 2017-01-01
322 Mr_Mojo_Rising 5.18 % 0.14 % 0.97 % ** 2.96 % 5.18 % 2017-01-01
323 mustbev 5.18 % 0.14 % 0.97 % ** 2.96 % 5.18 % 2017-01-01
324 NationalGuard 5.18 % 0.14 % 0.97 % ** 2.96 % 5.18 % 2017-01-01
325 navgod34 5.18 % 0.14 % 0.97 % ** 2.96 % 5.18 % 2017-01-01
326 Newbie 5.18 % 0.14 % 0.97 % ** 2.96 % 5.18 % 2017-01-01
327 nnewman 5.18 % 0.14 % 0.97 % ** 2.96 % 5.18 % 2017-01-01
328 pops 5.18 % 0.14 % 0.97 % ** 2.96 % 5.18 % 2017-01-01
329 pwagner3md 5.18 % 0.14 % 0.97 % ** 2.96 % 5.18 % 2017-01-01
330 rabbithimself 5.18 % 0.14 % 0.97 % ** 2.96 % 5.18 % 2017-01-01
331 Revanshill 5.18 % 0.14 % 0.97 % ** 2.96 % 5.18 % 2017-01-01
332 Rifleman 5.18 % 0.14 % 0.97 % ** 2.96 % 5.18 % 2017-01-01
333 rwmiller50 5.18 % 0.14 % 0.97 % ** 2.96 % 5.18 % 2017-01-01
334 sball.ca 5.18 % 0.14 % 0.97 % ** 2.96 % 5.18 % 2017-01-01
335 SeaOtter 5.18 % 0.14 % 0.97 % ** 2.96 % 5.18 % 2017-01-01
336 shelby642 5.18 % 0.14 % 0.97 % ** 2.96 % 5.18 % 2017-01-01
337 shoeboxgorilla 5.18 % 0.14 % 0.97 % ** 2.96 % 5.18 % 2017-01-01
338 skbn 5.18 % 0.14 % 0.97 % ** 2.96 % 5.18 % 2017-01-01
339 skid-kid 5.18 % 0.14 % 0.97 % ** 2.96 % 5.18 % 2017-01-01
340 Snake1b4 5.18 % 0.14 % 0.97 % ** 2.96 % 5.18 % 2017-01-01
341 SPANK550 5.18 % 0.14 % 0.97 % ** 2.96 % 5.18 % 2017-01-01
342 SR101 5.18 % 0.14 % 0.97 % ** 2.96 % 5.18 % 2017-01-01
343 TaillightMafia 5.18 % 0.14 % 0.97 % ** 2.96 % 5.18 % 2017-01-01
344 taronsr 5.18 % 0.14 % 0.97 % ** 2.96 % 5.18 % 2017-01-01
345 tekpc2k2 5.18 % 0.14 % 0.97 % ** 2.96 % 5.18 % 2017-01-01
346 theScientist 5.18 % 0.14 % 0.97 % ** 2.96 % 5.18 % 2017-01-01
347 tlmathe 5.18 % 0.14 % 0.97 % ** 2.96 % 5.18 % 2017-01-01
348 trwill7172 5.18 % 0.14 % 0.97 % ** 2.96 % 5.18 % 2017-01-01
349 victoria 5.18 % 0.14 % 0.97 % ** 2.96 % 5.18 % 2017-01-01
350 vintage53 5.18 % 0.14 % 0.97 % ** 2.96 % 5.18 % 2017-01-01
Rank Username YTD Returns Daily Returns WTD returns MTD Returns QTD Returns Start Date
351 wolfpup77 5.18 % 0.14 % 0.97 % ** 2.96 % 5.18 % 2017-01-01
352 Wulfie 5.18 % 0.14 % 0.97 % ** 2.96 % 5.18 % 2017-01-01
353 wsureshoot 5.18 % 0.14 % 0.97 % ** 2.96 % 5.18 % 2017-01-01
354 drewcifer 5.18 % 0.14 % 0.97 % ** 2.96 % 5.18 % 2017-01-01
355 snwbrdr397 5.18 % 0.14 % 0.97 % ** 2.96 % 5.18 % 2017-01-01
356 Handballer 5.18 % 0.14 % 0.97 % ** 2.96 % 5.18 % 2017-01-01
357 Steelhead 5.18 % 0.14 % 0.97 % ** 2.96 % 5.18 % 2017-01-01
358 wddolson 5.18 % 0.14 % 0.97 % ** 2.96 % 5.18 % 2017-01-01
359 DetroitLifer 5.18 % 0.14 % 0.97 % ** 2.96 % 5.18 % 2017-01-01
360 Crackon 5.18 % 0.14 % 0.97 % ** 2.96 % 5.18 % 2017-01-01
361 LMBF_Method 5.18 % 0.14 % 0.97 % ** 2.96 % 5.18 % 2017-01-01
362 rgncajun68 5.17 % 0.12 % 1.27 % ** 3.01 % 5.17 % 2017-01-01
363 bloodbath 5.17 % 0.11 % 1.42 % ** 3.03 % 5.16 % 2017-01-01
364 JimmyJoe 5.17 % 0.13 % 1.07 % ** 2.96 % 5.17 % 2017-01-01
365 Sniki 5.17 % 0.12 % 1.25 % ** 3.00 % 5.17 % 2017-01-01
366 urmomzbox 5.17 % 0.12 % 1.23 % ** 3.01 % 5.17 % 2017-01-01
367 usfwsduckriverman 5.17 % 0.11 % 1.35 % ** 3.03 % 5.17 % 2017-01-01
368 gaharris 5.16 % 0.11 % 1.18 % 2.94 % 5.16 % 2017-01-01
369 BigLair 5.16 % 0.13 % 1.52 % 3.16 % 5.16 % 2017-01-01
370 andy 5.16 % 0.10 % 1.48 % ** 3.04 % 5.16 % 2017-01-01
371 eecscoder 5.16 % 0.12 % 1.16 % ** 2.97 % 5.16 % 2017-01-01
372 Short 5.15 % 0.11 % 1.31 % ** 2.98 % 5.15 % 2017-01-01
373 Big_Sarge 5.14 % 0.15 % 1.25 % 2.89 % 5.14 % 2017-01-01
374 trudger 5.14 % 0.11 % 1.15 % 2.92 % 5.14 % 2017-01-01
375 rch8710 5.14 % 0.10 % 1.35 % ** 2.97 % 5.14 % 2017-01-01
376 CRUSHER 5.14 % 0.10 % 1.36 % ** 2.98 % 5.14 % 2017-01-01
377 pokerstar629 5.13 % -0.01 % 1.11 % 2.46 % 5.13 % 2017-01-01
378 iyoung 5.13 % 0.11 % 1.08 % ** 2.89 % 5.13 % 2017-01-01
379 dodgerblioux 5.12 % 0.09 % 1.34 % ** 2.94 % 5.12 % 2017-01-01
380 dtrax 5.12 % 0.09 % 1.22 % ** 2.90 % 5.12 % 2017-01-01
381 wwwtractor 5.11 % 0.09 % 1.33 % ** 2.92 % 5.11 % 2017-01-01
382 BessMan94 5.11 % 0.09 % 1.23 % ** 2.89 % 5.11 % 2017-01-01
383 evimoore 5.11 % 0.09 % 1.22 % ** 2.88 % 5.11 % 2017-01-01
384 ijmurray 5.11 % 0.11 % 0.96 % ** 2.83 % 5.11 % 2017-01-01
385 PIC153BD 5.10 % 0.13 % 0.96 % ** 2.88 % 5.10 % 2017-01-01
386 Ghageman 5.10 % 0.08 % 1.29 % ** 2.88 % 5.10 % 2017-01-01
387 IceJoe 5.10 % 0.09 % 1.16 % ** 2.85 % 5.10 % 2017-01-01
388 Macgyva 5.09 % 0.08 % 1.21 % ** 2.85 % 5.09 % 2017-01-01
389 BirchNWS 5.09 % 0.08 % 1.21 % ** 2.85 % 5.09 % 2017-01-01
390 tton 5.08 % -0.25 % 0.86 % 1.90 % 5.08 % 2017-01-01
391 asuasylum 5.08 % 0.14 % 1.41 % 2.86 % 5.08 % 2017-01-01
392 joehacker 5.08 % 0.15 % 1.13 % 3.06 % 5.08 % 2017-01-01
393 Elktracker 5.08 % 0.08 % 1.20 % ** 2.83 % 5.08 % 2017-01-01
394 Forecaster 5.08 % 0.07 % 1.28 % ** 2.84 % 5.08 % 2017-01-01
395 EdwardSF 5.08 % 0.08 % 1.25 % ** 2.84 % 5.08 % 2017-01-01
396 Spydercop 5.07 % 0.07 % 1.20 % 2.80 % 5.07 % 2017-01-01
397 redman1970 5.07 % 0.07 % 1.20 % ** 2.80 % 5.07 % 2017-01-01
398 Boozin1 5.07 % 0.08 % 1.13 % ** 2.79 % 5.07 % 2017-01-01
399 danie906 5.07 % 0.07 % 1.27 % ** 2.82 % 5.07 % 2017-01-01
400 furafura 5.07 % 0.07 % 1.27 % ** 2.81 % 5.07 % 2017-01-01
Rank Username YTD Returns Daily Returns WTD returns MTD Returns QTD Returns Start Date
401 etawx 5.07 % 0.07 % 1.27 % ** 2.83 % 5.07 % 2017-01-01
402 petersons 5.06 % 0.07 % 1.17 % ** 2.78 % 5.06 % 2017-01-01
403 Knight25 5.06 % 0.07 % 1.17 % ** 2.78 % 5.06 % 2017-01-01
404 AzzySpazbourne 5.06 % 0.13 % 1.28 % ** 3.01 % 5.06 % 2017-01-01
405 bailemi 5.05 % 0.14 % 0.85 % 2.83 % 5.05 % 2017-01-01
406 jswright 5.05 % 0.07 % 1.12 % 2.75 % 5.05 % 2017-01-01
407 evchau 5.05 % 0.14 % 1.36 % ** 3.06 % 5.05 % 2017-01-01
408 cook79768 5.05 % 0.06 % 1.18 % ** 2.76 % 5.05 % 2017-01-01
409 fishhead 5.05 % 0.06 % 1.27 % ** 2.78 % 5.05 % 2017-01-01
410 sapfm 5.05 % 0.07 % 1.11 % ** 2.74 % 5.05 % 2017-01-01
411 Dorado 5.04 % 0.01 % 0.83 % 2.82 % 5.04 % 2017-01-01
412 brentmc 5.03 % 0.05 % 1.32 % ** 2.75 % 5.03 % 2017-01-01
413 lifeasrxd 5.03 % 0.05 % 1.27 % ** 2.75 % 5.03 % 2017-01-01
414 Clemso 5.03 % 0.07 % 0.95 % ** 2.68 % 5.03 % 2017-01-01
415 gsamx 5.03 % 0.07 % 0.95 % ** 2.68 % 5.03 % 2017-01-01
416 guahan96 5.03 % 0.06 % 1.18 % ** 2.73 % 5.03 % 2017-01-01
417 DigDugII 5.03 % 0.07 % 0.95 % ** 2.68 % 5.03 % 2017-01-01
418 noclue 5.02 % 0.05 % 1.18 % 2.72 % 5.02 % 2017-01-01
419 markmars 5.02 % 0.05 % 1.21 % ** 2.71 % 5.02 % 2017-01-01
420 Kong13 5.02 % 0.05 % 1.15 % ** 2.70 % 5.02 % 2017-01-01
421 spinslight1 5.02 % 0.05 % 1.15 % ** 2.70 % 5.02 % 2017-01-01
422 tshare999 5.02 % 0.05 % 1.20 % ** 2.72 % 5.02 % 2017-01-01
423 Renegade 5.01 % 0.05 % 1.17 % 2.69 % 5.01 % 2017-01-01
424 eddie3375 5.01 % 0.14 % 0.97 % 2.96 % 5.01 % 2017-01-01
425 Pill 5.01 % 0.05 % 1.14 % 2.68 % 5.01 % 2017-01-01
426 hg1866 5.01 % 0.05 % 1.20 % ** 2.70 % 5.01 % 2017-01-01
427 millstadt05 5.01 % 0.05 % 1.17 % ** 2.69 % 5.01 % 2017-01-01
428 cojo1988 5.01 % 0.05 % 1.17 % ** 2.69 % 5.01 % 2017-01-01
429 flashmanxx 5.01 % 0.05 % 1.18 % ** 2.70 % 5.01 % 2017-01-01
430 Supernova2033 5.01 % 0.06 % 0.95 % ** 2.63 % 5.01 % 2017-01-01
431 american42 5.00 % 0.04 % 1.19 % ** 2.68 % 5.00 % 2017-01-01
432 waveman43 5.00 % 0.04 % 1.19 % ** 2.67 % 5.00 % 2017-01-01
433 dctarheel 5.00 % 0.04 % 1.17 % ** 2.66 % 5.00 % 2017-01-01
434 deward 5.00 % 0.05 % 1.08 % ** 2.66 % 5.00 % 2017-01-01
435 Hodster 5.00 % 0.04 % 1.17 % ** 2.67 % 5.00 % 2017-01-01
436 Moore 5.00 % 0.04 % 1.17 % ** 2.68 % 5.00 % 2017-01-01
437 PICK68 5.00 % 0.04 % 1.14 % ** 2.67 % 5.00 % 2017-01-01
438 doge1976 4.99 % 0.14 % 1.03 % 2.90 % 4.99 % 2017-01-01
439 GFundBaby 4.99 % 0.04 % 1.17 % ** 2.66 % 4.99 % 2017-01-01
440 Skip 4.98 % -0.06 % 0.91 % 2.38 % 4.98 % 2017-01-01
441 goose 4.98 % 0.01 % 0.71 % 1.63 % 4.98 % 2017-01-01
442 dlb11693 4.98 % 0.04 % 1.06 % ** 2.62 % 4.98 % 2017-01-01
443 hawktecc1 4.98 % 0.03 % 1.16 % ** 2.64 % 4.98 % 2017-01-01
444 Highroller 4.97 % 0.09 % 1.19 % ** 2.80 % 4.97 % 2017-01-01
445 cwbys223 4.97 % 0.04 % 0.94 % ** 2.57 % 4.97 % 2017-01-01
446 jaks51 4.96 % 0.04 % 0.94 % ** 2.54 % 4.96 % 2017-01-01
447 Ozzy_357924 4.95 % 0.05 % 1.14 % 2.68 % 4.95 % 2017-01-01
448 krempajs 4.95 % 0.02 % 1.14 % 2.57 % 4.95 % 2017-01-01
449 Timberwoof 4.95 % 0.02 % 1.14 % ** 2.57 % 4.95 % 2017-01-01
450 Tot_Global_Mkt 4.95 % 0.02 % 1.18 % ** 2.59 % 4.95 % 2017-01-01
Rank Username YTD Returns Daily Returns WTD returns MTD Returns QTD Returns Start Date
451 babydux 4.94 % 0.14 % 1.23 % 2.98 % 4.94 % 2017-01-01
452 arquintana 4.94 % 0.02 % 1.07 % ** 2.53 % 4.94 % 2017-01-01
453 crazyjames 4.93 % 0.03 % 1.14 % ** 2.60 % 4.93 % 2017-01-01
454 RV7 4.92 % -0.04 % 1.23 % 2.38 % 4.92 % 2017-01-01
455 martint4 4.92 % 0.11 % 1.16 % ** 2.83 % 4.92 % 2017-01-01
456 kmx23 4.92 % 0.10 % 1.19 % ** 2.82 % 4.92 % 2017-01-01
457 zegerst 4.91 % 0.14 % 0.85 % 2.55 % 4.91 % 2017-01-01
458 mschewy 4.91 % 0.03 % 0.93 % 2.33 % 4.91 % 2017-01-01
459 Cheng 4.91 % 0.00 % 1.12 % ** 2.50 % 4.91 % 2017-01-01
460 misg4420 4.91 % 0.00 % 1.07 % ** 2.48 % 4.91 % 2017-01-01
461 bombnav1 4.91 % 0.10 % 1.18 % ** 2.80 % 4.91 % 2017-01-01
462 rayald 4.89 % 0.01 % 0.32 % 2.30 % 4.89 % 2017-01-01
463 towncop1978 4.89 % 0.00 % 0.93 % 2.41 % 4.89 % 2017-01-01
464 BrandesValue 4.89 % 0.08 % 1.25 % 2.87 % 4.89 % 2017-01-01
465 aminze 4.89 % 0.01 % 0.93 % ** 2.42 % 4.89 % 2017-01-01
466 aeroconfigs 4.88 % 0.01 % 0.05 % 1.46 % 4.88 % 2017-01-01
467 william4x 4.88 % 0.13 % 1.25 % ** 2.92 % 4.88 % 2017-01-01
468 oOSupremeOo 4.87 % 0.14 % 0.97 % 2.93 % 4.87 % 2017-01-01
469 sigj 4.87 % 0.14 % 0.97 % 2.96 % 4.87 % 2017-01-01
470 Pittdog 4.86 % 0.10 % 1.13 % 2.75 % 4.86 % 2017-01-01
471 miyagi 4.86 % 0.16 % 1.29 % 3.05 % 4.86 % 2017-01-01
472 NotReally! 4.85 % 0.02 % 0.65 % 2.63 % 4.85 % 2017-01-01
473 mrtruckaudi 4.85 % 0.15 % 1.10 % 2.80 % 4.85 % 2017-01-01
474 lartra 4.85 % 0.03 % 0.81 % 2.32 % 4.85 % 2017-01-01
475 robertbr1963 4.84 % -0.04 % 1.23 % ** 2.40 % 4.84 % 2017-01-01
476 mpie72 4.84 % 0.14 % 1.22 % ** 2.88 % 4.84 % 2017-01-01
477 fluffypotato 4.83 % 0.06 % 1.26 % 2.77 % 4.83 % 2017-01-01
478 lbeeba8862 4.83 % -0.04 % 1.23 % ** 2.38 % 4.83 % 2017-01-01
479 mboja 4.83 % -0.02 % 0.92 % ** 2.30 % 4.83 % 2017-01-01
480 lawnman 4.83 % -0.02 % 0.92 % ** 2.31 % 4.83 % 2017-01-01
481 Sports_Night 4.83 % -0.03 % 1.09 % ** 2.34 % 4.83 % 2017-01-01
482 sonyctx 4.83 % -0.03 % 1.09 % ** 2.34 % 4.83 % 2017-01-01
483 soupykid 4.82 % -0.02 % 0.93 % 2.34 % 4.82 % 2017-01-01
484 1crazyfatboy 4.82 % -0.03 % 0.92 % ** 2.28 % 4.82 % 2017-01-01
485 CrgButcher 4.81 % 0.14 % 0.97 % 2.59 % 4.81 % 2017-01-01
486 kemphrunner 4.81 % 0.14 % 0.95 % 2.77 % 4.81 % 2017-01-01
487 mellowmoon 4.81 % 0.01 % 0.05 % 2.02 % 4.81 % 2017-01-01
488 gsrider 4.81 % 0.07 % 1.07 % 2.73 % 4.81 % 2017-01-01
489 grube00 4.81 % 0.05 % 1.11 % ** 2.59 % 4.81 % 2017-01-01
490 JPW77 4.81 % -0.03 % 0.92 % ** 2.27 % 4.81 % 2017-01-01
491 rebel346 4.80 % 0.07 % 1.20 % 2.81 % 4.80 % 2017-01-01
492 STCjUnKie 4.79 % -0.04 % 0.92 % ** 2.24 % 4.79 % 2017-01-01
493 bozdog 4.79 % -0.04 % 0.92 % ** 2.24 % 4.79 % 2017-01-01
494 lsutiger1985 4.79 % 0.14 % 1.14 % ** 2.86 % 4.79 % 2017-01-01
495 rdsox05 4.79 % -0.04 % 0.92 % ** 2.23 % 4.79 % 2017-01-01
496 mosicki 4.77 % 0.13 % 1.16 % ** 2.82 % 4.77 % 2017-01-01
497 thebreen 4.76 % -0.06 % 0.91 % 2.18 % 4.76 % 2017-01-01
498 Rico69 4.76 % -0.06 % 0.91 % ** 2.17 % 4.76 % 2017-01-01
499 Jane 4.75 % 0.15 % 1.06 % 2.81 % 4.75 % 2017-01-01
500 sage 4.75 % 0.12 % 1.14 % ** 2.77 % 4.75 % 2017-01-01
Rank Username YTD Returns Daily Returns WTD returns MTD Returns QTD Returns Start Date
501 jason011235813 4.74 % 0.04 % 1.10 % ** 2.51 % 4.74 % 2017-01-01
502 Lester130 4.73 % 0.14 % 0.97 % 2.18 % 4.73 % 2017-01-01
503 ksklmiller 4.73 % 0.09 % 1.01 % ** 2.63 % 4.73 % 2017-01-01
504 nicole5001 4.72 % 0.11 % 1.31 % ** 2.82 % 4.72 % 2017-01-01
505 Hamhocs 4.71 % 0.01 % 1.25 % 1.98 % 4.71 % 2017-01-01
506 temptec 4.71 % 0.02 % 1.06 % ** 2.43 % 4.71 % 2017-01-01
507 dunwichman 4.71 % -0.08 % 0.91 % ** 2.08 % 4.71 % 2017-01-01
508 badgerland 4.71 % 0.11 % 1.13 % ** 2.73 % 4.71 % 2017-01-01
509 ksteiner560 4.68 % 0.03 % 1.16 % 2.64 % 4.68 % 2017-01-01
510 sarriola 4.68 % 0.03 % 1.12 % ** 2.49 % 4.68 % 2017-01-01
511 Tamjay74 4.68 % 0.12 % 0.90 % ** 2.66 % 4.68 % 2017-01-01
512 Andeano 4.67 % 0.09 % 1.16 % ** 2.66 % 4.67 % 2017-01-01
513 Jqsomera 4.66 % 0.12 % 1.23 % ** 2.76 % 4.66 % 2017-01-01
514 RookieInvestor 4.66 % 0.11 % 1.27 % ** 2.78 % 4.66 % 2017-01-01
515 shaner19er 4.66 % 0.09 % 1.13 % ** 2.63 % 4.66 % 2017-01-01
516 buckeyefan201 4.65 % 0.08 % 1.07 % ** 2.58 % 4.65 % 2017-01-01
517 cyoa1fan 4.64 % 0.14 % 0.85 % 2.83 % 4.64 % 2017-01-01
518 Birchtree 4.63 % -0.13 % 1.07 % ** 1.96 % 4.63 % 2017-01-01
519 texaggies89 4.62 % 0.11 % 0.74 % 2.08 % 4.62 % 2017-01-01
520 fedgolfer 4.62 % 0.14 % -0.01 % 1.26 % 4.62 % 2017-01-01
521 jdeacon 4.61 % 0.10 % 1.21 % 2.68 % 4.61 % 2017-01-01
522 saxman 4.60 % 0.16 % 1.22 % ** 2.82 % 4.60 % 2017-01-01
523 Roddhsi 4.57 % 0.03 % 1.13 % 2.61 % 4.57 % 2017-01-01
524 justbidinmytime 4.57 % 0.14 % 1.14 % 2.22 % 4.57 % 2017-01-01
525 flyoa1 4.57 % 0.01 % 1.09 % 3.08 % 4.57 % 2017-01-01
526 Mustangmoose302 4.57 % -0.06 % 1.07 % 2.17 % 4.57 % 2017-01-01
527 tsclippinger 4.57 % 0.07 % 1.11 % ** 2.52 % 4.57 % 2017-01-01
528 Beamer 4.56 % 0.04 % 1.07 % 2.44 % 4.56 % 2017-01-01
529 paperbitch 4.55 % 0.13 % 0.89 % ** 2.61 % 4.55 % 2017-01-01
530 BigBully 4.54 % 0.14 % 0.36 % 2.34 % 4.54 % 2017-01-01
531 Markster70 4.53 % 0.14 % 1.19 % ** 2.76 % 4.53 % 2017-01-01
532 Beacher1 4.52 % 0.14 % 0.97 % 2.96 % 4.52 % 2017-01-01
533 Jetpowered78 4.52 % 0.09 % 1.17 % 2.51 % 4.52 % 2017-01-01
534 cbp03 4.51 % 0.09 % 0.96 % ** 2.52 % 4.51 % 2017-01-01
535 RDJ67 4.50 % -0.15 % 0.89 % 2.29 % 4.50 % 2017-01-01
536 mikepop 4.50 % 0.01 % 0.32 % 2.30 % 4.50 % 2017-01-01
537 MrBowl 4.48 % 0.01 % 1.09 % 3.08 % 4.48 % 2017-01-01
538 Cash_Money 4.47 % 0.01 % 0.05 % 1.60 % 4.47 % 2017-01-01
539 felinecrl 4.47 % 0.13 % 0.85 % ** 2.54 % 4.47 % 2017-01-01
540 Tailgate 4.46 % -0.01 % 1.11 % 2.46 % 4.46 % 2017-01-01
541 klaron 4.46 % 0.01 % 0.05 % 2.16 % 4.46 % 2017-01-01
542 rjeeeeezy 4.46 % 0.16 % 1.44 % 3.26 % 4.46 % 2017-01-01
543 roonie 4.45 % 0.16 % 1.28 % 3.16 % 4.45 % 2017-01-01
544 ferretgrl 4.45 % 0.13 % 1.10 % ** 2.67 % 4.45 % 2017-01-01
545 mikeginva 4.45 % 0.13 % 1.10 % ** 2.67 % 4.45 % 2017-01-01
546 silversurfer 4.44 % 0.10 % 0.96 % 2.80 % 4.44 % 2017-01-01
547 Gethers 4.43 % 0.00 % 0.97 % ** 2.21 % 4.43 % 2017-01-01
548 mdearman 4.43 % 0.08 % 1.11 % ** 2.51 % 4.43 % 2017-01-01
549 Jayru 4.42 % 0.07 % 1.04 % ** 2.45 % 4.42 % 2017-01-01
550 slakker97 4.42 % 0.16 % 1.18 % ** 2.73 % 4.42 % 2017-01-01
Rank Username YTD Returns Daily Returns WTD returns MTD Returns QTD Returns Start Date
551 lmbebo 4.40 % 0.08 % 1.01 % ** 2.44 % 4.40 % 2017-01-01
552 Jaybird79 4.39 % 0.13 % 1.08 % ** 2.64 % 4.39 % 2017-01-01
553 playboy 4.38 % 0.14 % 1.31 % ** 2.76 % 4.38 % 2017-01-01
554 TDStrange 4.37 % 0.07 % 1.07 % 2.43 % 4.37 % 2017-01-01
555 yanni123 4.36 % 0.05 % 0.54 % 1.40 % 4.36 % 2017-01-01
556 atarrin 4.36 % 0.06 % 1.10 % ** 2.44 % 4.36 % 2017-01-01
557 LMBF1_C>S 4.35 % -0.25 % 0.86 % 1.41 % 4.35 % 2017-01-01
558 LMBF1_Day 4.35 % -0.25 % 0.86 % 1.41 % 4.35 % 2017-01-01
559 LMBF1_SIM 4.35 % -0.25 % 0.86 % 1.41 % 4.35 % 2017-01-01
560 judochop 4.35 % -0.25 % 0.86 % 1.41 % 4.35 % 2017-01-01
561 I-fund 4.35 % -0.25 % 0.86 % 1.41 % 4.35 % 2017-01-01
562 crispy 4.35 % -0.25 % 0.86 % ** 1.41 % 4.35 % 2017-01-01
563 nightlite 4.35 % -0.25 % 0.86 % ** 1.41 % 4.35 % 2017-01-01
564 jrutherford2 4.35 % -0.25 % 0.86 % ** 1.41 % 4.35 % 2017-01-01
565 malyla 4.35 % -0.25 % 0.86 % ** 1.41 % 4.35 % 2017-01-01
566 DCKevin 4.35 % -0.25 % 0.86 % ** 1.41 % 4.35 % 2017-01-01
567 2GodBtheGLORY 4.35 % -0.25 % 0.86 % ** 1.41 % 4.35 % 2017-01-01
568 BearTrap 4.35 % -0.25 % 0.86 % ** 1.41 % 4.35 % 2017-01-01
569 jajo1554 4.35 % -0.25 % 0.86 % ** 1.41 % 4.35 % 2017-01-01
570 Kahuna6969 4.35 % -0.25 % 0.86 % ** 1.41 % 4.35 % 2017-01-01
571 SavyNeal 4.35 % -0.25 % 0.86 % ** 1.41 % 4.35 % 2017-01-01
572 Sunnyday 4.35 % -0.25 % 0.86 % ** 1.41 % 4.35 % 2017-01-01
573 Shawhardy 4.35 % -0.25 % 0.86 % ** 1.41 % 4.35 % 2017-01-01
574 cfwcfw 4.33 % 0.13 % 1.06 % ** 2.60 % 4.33 % 2017-01-01
575 redcard 4.30 % 0.09 % 1.10 % ** 2.48 % 4.30 % 2017-01-01
576 riverdestiny 4.30 % 0.12 % 0.90 % ** 2.50 % 4.30 % 2017-01-01
577 RoldanFam 4.29 % -0.01 % 1.02 % ** 2.15 % 4.29 % 2017-01-01
578 janemattress711 4.28 % 0.03 % 1.11 % 2.60 % 4.28 % 2017-01-01
579 jpcavin 4.28 % 0.12 % 1.27 % 3.00 % 4.28 % 2017-01-01
580 crommie 4.27 % -0.25 % 0.86 % 0.86 % 4.27 % 2017-01-01
581 Boghie 4.27 % 0.08 % 0.99 % 2.35 % 4.27 % 2017-01-01
582 StockSurfer 4.26 % 0.14 % 1.23 % 3.22 % 4.26 % 2017-01-01
583 spacepoints 4.26 % 0.04 % 1.04 % ** 2.30 % 4.26 % 2017-01-01
584 franky 4.25 % 0.14 % 0.97 % 2.42 % 4.25 % 2017-01-01
585 L2050 4.23 % 0.04 % 1.06 % 2.28 % 4.23 % 2017-01-01
586 tashabh 4.23 % 0.04 % 1.06 % ** 2.28 % 4.23 % 2017-01-01
587 biomedrick 4.23 % 0.04 % 1.06 % ** 2.28 % 4.23 % 2017-01-01
588 Jayt23 4.23 % 0.04 % 1.06 % ** 2.28 % 4.23 % 2017-01-01
589 Caith 4.23 % 0.04 % 1.06 % ** 2.28 % 4.23 % 2017-01-01
590 Kjay 4.23 % 0.04 % 1.06 % ** 2.28 % 4.23 % 2017-01-01
591 gio20 4.23 % 0.04 % 1.06 % ** 2.28 % 4.23 % 2017-01-01
592 93GT 4.23 % 0.04 % 1.06 % ** 2.28 % 4.23 % 2017-01-01
593 doug.hornback 4.23 % 0.04 % 1.06 % ** 2.28 % 4.23 % 2017-01-01
594 khunk 4.23 % 0.04 % 1.06 % ** 2.28 % 4.23 % 2017-01-01
595 qbcall11 4.23 % 0.04 % 1.06 % ** 2.28 % 4.23 % 2017-01-01
596 Shivers 4.23 % 0.04 % 1.06 % ** 2.28 % 4.23 % 2017-01-01
597 Wrngway 4.23 % 0.04 % 1.06 % ** 2.28 % 4.23 % 2017-01-01
598 DesertBoots77 4.23 % 0.04 % 1.06 % ** 2.28 % 4.23 % 2017-01-01
599 phxmrc 4.22 % 0.14 % 0.97 % 2.96 % 4.22 % 2017-01-01
600 tucahay 4.22 % 0.14 % 0.97 % 2.96 % 4.22 % 2017-01-01
Rank Username YTD Returns Daily Returns WTD returns MTD Returns QTD Returns Start Date
601 Bighorn6 4.21 % 0.15 % 1.13 % 3.06 % 4.21 % 2017-01-01
602 uf_rjeezy 4.19 % 0.16 % 1.28 % 3.16 % 4.19 % 2017-01-01
603 MRJ 4.17 % 0.14 % 0.11 % 2.08 % 4.17 % 2017-01-01
604 NSLADL2 4.15 % 0.15 % 0.91 % 2.46 % 4.15 % 2017-01-01
605 jplecain 4.15 % 0.06 % 0.77 % ** 2.16 % 4.15 % 2017-01-01
606 marshad_786 4.14 % 0.09 % 0.35 % 1.77 % 4.14 % 2017-01-01
607 Morpheus 4.12 % 0.04 % 0.96 % ** 2.20 % 4.12 % 2017-01-01
608 Wildwoman 4.11 % -0.25 % 0.86 % 1.91 % 4.11 % 2017-01-01
609 jerzystang 4.11 % 0.07 % 0.94 % ** 2.22 % 4.11 % 2017-01-01
610 Carpatc 4.10 % 0.12 % 0.92 % ** 2.41 % 4.10 % 2017-01-01
611 poi9 4.09 % 0.11 % 0.77 % 2.33 % 4.09 % 2017-01-01
612 nightsters 4.08 % 0.01 % 0.05 % 1.77 % 4.08 % 2017-01-01
613 Calicat69 4.07 % 0.05 % 0.99 % ** 2.22 % 4.07 % 2017-01-01
614 ldm1958 4.06 % 0.11 % 1.10 % ** 2.41 % 4.06 % 2017-01-01
615 KRSSDSU 4.05 % 0.15 % 1.19 % 3.10 % 4.05 % 2017-01-01
616 Boxholder 4.05 % 0.01 % 0.05 % 1.78 % 4.05 % 2017-01-01
617 scaltagi 4.05 % 0.12 % 1.05 % ** 2.46 % 4.05 % 2017-01-01
618 Britts4life 4.04 % 0.01 % 1.43 % 2.46 % 4.04 % 2017-01-01
619 OnTarget 4.04 % 0.01 % 0.63 % 2.36 % 4.04 % 2017-01-01
620 LongShot 4.03 % 0.01 % 0.01 % 1.13 % 4.03 % 2017-01-01
621 Captcaveman 4.02 % 0.05 % 0.42 % 1.95 % 4.02 % 2017-01-01
622 tankerclown 4.01 % -0.09 % 0.44 % 0.80 % 4.01 % 2017-01-01
623 FedSince2009 4.00 % 0.06 % 1.04 % ** 2.23 % 4.00 % 2017-01-01
624 FedUpFed 3.97 % 0.01 % 0.05 % 1.90 % 3.97 % 2017-01-01
625 Weather_n_Leather 3.95 % 0.06 % 0.96 % ** 2.18 % 3.95 % 2017-01-01
626 galaxy101 3.93 % 0.04 % 1.10 % 2.42 % 3.93 % 2017-01-01
627 felixthecat 3.93 % 0.01 % 0.45 % 1.92 % 3.93 % 2017-01-01
628 ward5820 3.92 % 0.01 % 0.63 % 2.72 % 3.92 % 2017-01-01
629 DaBears17 3.91 % 0.14 % 0.97 % 2.96 % 3.91 % 2017-01-01
630 TheGizz 3.88 % 0.05 % 0.99 % ** 2.16 % 3.88 % 2017-01-01
631 flg22 3.87 % 0.14 % 0.97 % 1.86 % 3.87 % 2017-01-01
632 hosscube 3.87 % 0.14 % 0.92 % ** 2.32 % 3.87 % 2017-01-01
633 Carwin 3.86 % 0.01 % 0.48 % 2.06 % 3.86 % 2017-01-01
634 mcash 3.86 % 0.07 % 1.00 % 2.15 % 3.86 % 2017-01-01
635 codezero 3.86 % 0.07 % 0.86 % ** 2.13 % 3.86 % 2017-01-01
636 Striken7 3.86 % 0.13 % 0.93 % ** 2.32 % 3.86 % 2017-01-01
637 2Plus 3.85 % -0.25 % 0.86 % 1.66 % 3.85 % 2017-01-01
638 indgilbert 3.85 % -0.01 % 1.11 % 2.46 % 3.85 % 2017-01-01
639 gk10128 3.83 % 0.13 % 0.88 % 2.68 % 3.83 % 2017-01-01
640 markisrt4 3.83 % 0.14 % 1.28 % 3.08 % 3.83 % 2017-01-01
641 FishSqueezer 3.83 % 0.16 % 1.28 % 2.10 % 3.83 % 2017-01-01
642 Mercy 3.83 % 0.04 % 0.97 % ** 2.08 % 3.83 % 2017-01-01
643 ravensfan 3.81 % 0.07 % 0.37 % 0.44 % 3.81 % 2017-01-01
644 ryencsik 3.79 % 0.11 % 0.92 % ** 2.27 % 3.79 % 2017-01-01
645 meltuna 3.78 % 0.01 % 0.93 % 2.42 % 3.78 % 2017-01-01
646 siidman 3.78 % -0.03 % 0.68 % 0.74 % 3.78 % 2017-01-01
647 LilLair 3.78 % 0.01 % 0.91 % 2.09 % 3.78 % 2017-01-01
648 limebalz 3.77 % 0.15 % 1.10 % 3.04 % 3.77 % 2017-01-01
649 Skorp64 3.77 % -0.25 % 0.86 % 1.33 % 3.77 % 2017-01-01
650 L2040 3.76 % 0.04 % 0.94 % 2.03 % 3.76 % 2017-01-01
Rank Username YTD Returns Daily Returns WTD returns MTD Returns QTD Returns Start Date
651 soupygirl 3.76 % 0.04 % 0.94 % ** 2.03 % 3.76 % 2017-01-01
652 Salmon365 3.76 % 0.04 % 0.94 % ** 2.03 % 3.76 % 2017-01-01
653 soam24 3.76 % 0.04 % 0.94 % ** 2.03 % 3.76 % 2017-01-01
654 Castronaut 3.76 % 0.04 % 0.94 % ** 2.03 % 3.76 % 2017-01-01
655 Forcefed 3.76 % 0.04 % 0.94 % ** 2.03 % 3.76 % 2017-01-01
656 GOVOLS 3.76 % 0.04 % 0.94 % ** 2.03 % 3.76 % 2017-01-01
657 soupydog 3.76 % 0.04 % 0.94 % ** 2.03 % 3.76 % 2017-01-01
658 Tvenos 3.76 % 0.04 % 0.94 % ** 2.03 % 3.76 % 2017-01-01
659 jasonlwright 3.75 % 0.11 % 0.92 % ** 2.25 % 3.75 % 2017-01-01
660 Skorcher 3.74 % 0.14 % 0.97 % 2.96 % 3.74 % 2017-01-01
661 Riverman62 3.73 % 0.04 % 0.93 % ** 2.01 % 3.73 % 2017-01-01
662 mallardman89 3.72 % 0.16 % 1.07 % ** 2.34 % 3.72 % 2017-01-01
663 cybermage 3.71 % 0.16 % 1.07 % ** 2.34 % 3.71 % 2017-01-01
664 spgenius 3.68 % 0.14 % 0.62 % 1.49 % 3.68 % 2017-01-01
665 ShadowHawk 3.68 % 0.01 % 0.05 % 1.42 % 3.68 % 2017-01-01
666 nate4sho 3.66 % 0.10 % 1.05 % 2.74 % 3.66 % 2017-01-01
667 bjones7 3.65 % 0.01 % 0.05 % 1.46 % 3.65 % 2017-01-01
668 boilerman 3.65 % 0.01 % 0.05 % 1.46 % 3.65 % 2017-01-01
669 denbo 3.65 % 0.01 % 0.05 % 1.46 % 3.65 % 2017-01-01
670 pjsstuff71 3.65 % 0.01 % 0.05 % 1.46 % 3.65 % 2017-01-01
671 joewashdc 3.65 % 0.03 % 0.89 % ** 1.95 % 3.65 % 2017-01-01
672 k9lowe 3.65 % 0.04 % 0.91 % ** 1.96 % 3.65 % 2017-01-01
673 tkd1982 3.64 % 0.14 % 1.29 % 2.77 % 3.64 % 2017-01-01
674 argyle64 3.63 % 0.11 % 1.24 % 1.66 % 3.63 % 2017-01-01
675 Chorizo * 3.61 % 0.14 % 0.97 % 2.99 % 3.61 % 2017-01-09
676 Shakenbake * 3.60 % -0.25 % 0.86 % 1.16 % 3.60 % 2017-01-11
677 skeeter 3.60 % 0.17 % 1.60 % 3.36 % 3.60 % 2017-01-01
678 Trapperpaul 3.59 % 0.04 % 0.87 % 2.19 % 3.59 % 2017-01-01
679 ztlmike 3.58 % 0.01 % 1.07 % 2.97 % 3.58 % 2017-01-01
680 pread 3.57 % 0.14 % 0.97 % 2.96 % 3.57 % 2017-01-01
681 Jrfich 3.54 % 0.16 % 0.44 % 1.00 % 3.54 % 2017-01-01
682 Tsunami 3.52 % 0.01 % 1.09 % 3.08 % 3.52 % 2017-01-01
683 DC2scott * 3.50 % 0.15 % 1.10 % 2.96 % 3.50 % 2017-01-30
684 redman2222 3.50 % 0.00 % 0.92 % ** 1.81 % 3.50 % 2017-01-01
685 kujayhawk69 3.50 % 0.01 % 0.88 % ** 1.81 % 3.50 % 2017-01-01
686 resurgemus 3.49 % 0.03 % 0.84 % 1.82 % 3.49 % 2017-01-01
687 BGBassLady64 3.49 % 0.11 % 0.97 % 2.15 % 3.49 % 2017-01-01
688 GonzoJK 3.49 % 0.01 % 0.05 % 0.11 % 3.49 % 2017-01-01
689 IWTC 3.49 % 0.08 % 0.83 % ** 2.02 % 3.49 % 2017-01-01
690 cvlsvt 3.49 % 0.05 % 0.87 % ** 1.91 % 3.49 % 2017-01-01
691 Rummy1958 3.48 % -0.04 % 1.23 % 2.21 % 3.48 % 2017-01-01
692 Emcd14 3.47 % 0.10 % 0.85 % ** 2.08 % 3.47 % 2017-01-01
693 dirtboy27 3.46 % 0.14 % 1.50 % 3.25 % 3.46 % 2017-01-01
694 ChuckH 3.42 % 0.16 % 1.28 % 3.21 % 3.42 % 2017-01-01
695 beachfront * 3.41 % 0.16 % 1.28 % 3.16 % 3.41 % 2017-01-30
696 pinion 3.41 % 0.07 % 0.82 % ** 1.89 % 3.41 % 2017-01-01
697 Mucho_Dinero 3.40 % 0.01 % 0.40 % 1.66 % 3.40 % 2017-01-01
698 Ozhusker * 3.40 % 0.14 % 0.85 % 2.58 % 3.40 % 2017-01-06
699 catak 3.40 % 0.09 % 0.88 % ** 1.96 % 3.40 % 2017-01-01
700 tjdorrie 3.40 % 0.05 % 0.83 % ** 1.86 % 3.40 % 2017-01-01
Rank Username YTD Returns Daily Returns WTD returns MTD Returns QTD Returns Start Date
701 Inertia 3.40 % 0.00 % 0.89 % ** 1.75 % 3.40 % 2017-01-01
702 CapeChem 3.38 % 0.03 % 0.84 % 1.81 % 3.38 % 2017-01-01
703 kathy73 3.36 % 0.15 % 1.10 % 3.04 % 3.35 % 2017-01-01
704 MakeItRain 3.35 % 0.01 % 0.05 % 1.46 % 3.35 % 2017-01-01
705 69mustang 3.34 % 0.01 % 0.83 % 1.78 % 3.34 % 2017-01-01
706 Sonic 3.34 % -0.05 % 0.21 % 0.37 % 3.34 % 2017-01-01
707 txfan 3.33 % 0.16 % 0.83 % 2.01 % 3.33 % 2017-01-01
708 czapor1967 3.33 % -0.25 % 0.86 % 1.14 % 3.33 % 2017-01-01
709 puddy 3.32 % 0.15 % 1.16 % 3.08 % 3.32 % 2017-01-01
710 sean101 3.31 % 0.03 % 1.13 % 1.77 % 3.31 % 2017-01-01
711 bjohnson12 3.31 % 0.07 % 0.02 % 0.76 % 3.31 % 2017-01-01
712 FAB1 3.31 % 0.01 % 0.05 % 1.46 % 3.31 % 2017-01-01
713 Knot_Guilty 3.31 % -0.06 % 0.91 % 2.18 % 3.31 % 2017-01-01
714 dialing4dollars 3.30 % 0.14 % 0.97 % 2.96 % 3.30 % 2017-01-01
715 lilbob 3.30 % 0.01 % 0.83 % ** 1.72 % 3.30 % 2017-01-01
716 tucotsp 3.28 % 0.14 % 1.50 % 3.03 % 3.28 % 2017-01-01
717 Mantonelli 3.26 % 0.14 % -0.01 % 0.27 % 3.26 % 2017-01-01
718 DreamboatAnnie 3.26 % 0.01 % 0.05 % 0.11 % 3.26 % 2017-01-01
719 weather 3.26 % 0.03 % 0.81 % 1.75 % 3.26 % 2017-01-01
720 L2030 3.26 % 0.03 % 0.81 % 1.75 % 3.26 % 2017-01-01
721 LeCouchonDingue 3.26 % 0.03 % 0.81 % ** 1.75 % 3.26 % 2017-01-01
722 pwclantdiv 3.26 % 0.08 % 0.84 % ** 1.81 % 3.26 % 2017-01-01
723 DrScooter 3.26 % 0.03 % 0.81 % ** 1.75 % 3.26 % 2017-01-01
724 marka1620 3.26 % 0.03 % 0.81 % ** 1.75 % 3.26 % 2017-01-01
725 pathalford 3.26 % 0.03 % 0.81 % ** 1.75 % 3.26 % 2017-01-01
726 Towanda 3.25 % 0.09 % 0.67 % ** 1.87 % 3.25 % 2017-01-01
727 canisdog 3.25 % 0.03 % 0.75 % ** 1.71 % 3.25 % 2017-01-01
728 scrsvs 3.24 % 0.14 % 0.85 % 1.47 % 3.24 % 2017-01-01
729 Phil46 3.24 % 0.05 % 0.72 % ** 1.70 % 3.24 % 2017-01-01
730 u.s.dan 3.23 % 0.03 % 0.81 % 2.13 % 3.23 % 2017-01-01
731 cholondo 3.23 % 0.09 % 0.73 % 1.81 % 3.23 % 2017-01-01
732 20%_each 3.20 % 0.05 % 0.72 % 1.69 % 3.20 % 2017-01-01
733 CDooge 3.20 % 0.05 % 0.72 % ** 1.69 % 3.20 % 2017-01-01
734 Rube 3.20 % 0.05 % 0.72 % ** 1.69 % 3.20 % 2017-01-01
735 Kevindraws53 3.20 % 0.10 % 0.78 % ** 1.91 % 3.20 % 2017-01-01
736 msm24 3.20 % 0.05 % 0.72 % ** 1.69 % 3.20 % 2017-01-01
737 endoskell 3.19 % 0.11 % 1.21 % 2.96 % 3.19 % 2017-01-01
738 Sad_Al 3.19 % -0.04 % 1.23 % 2.29 % 3.19 % 2017-01-01
739 scsiguru 3.19 % 0.03 % 0.81 % ** 1.73 % 3.19 % 2017-01-01
740 jnchandrew 3.18 % 0.14 % 0.22 % 0.70 % 3.18 % 2017-01-01
741 jbwalters 3.17 % 0.01 % 0.83 % 2.97 % 3.17 % 2017-01-01
742 fran1775 3.17 % 0.14 % 0.97 % 2.96 % 3.17 % 2017-01-01
743 Maine-i-ac 3.14 % 0.01 % 0.05 % 0.11 % 3.14 % 2017-01-01
744 Totohydra 3.13 % 0.14 % 0.97 % 2.96 % 3.13 % 2017-01-01
745 Bball 3.13 % -0.06 % 0.61 % ** 1.37 % 3.13 % 2017-01-01
746 MrJohnRoss 3.11 % 0.14 % 0.97 % 2.42 % 3.11 % 2017-01-01
747 lmcues 3.08 % 0.04 % 0.30 % 1.17 % 3.08 % 2017-01-01
748 SCHAGAN 3.07 % 0.01 % 0.32 % 2.30 % 3.07 % 2017-01-01
749 Rogue 3.07 % 0.10 % 0.69 % 1.68 % 3.07 % 2017-01-01
750 TURNIPSEED 3.07 % 0.08 % 0.96 % 2.35 % 3.07 % 2017-01-01
Rank Username YTD Returns Daily Returns WTD returns MTD Returns QTD Returns Start Date
751 Bender 3.07 % 0.10 % 0.91 % ** 1.91 % 3.07 % 2017-01-01
752 StockTater 3.07 % 0.08 % 0.58 % ** 1.74 % 3.07 % 2017-01-01
753 rchurchwell 3.06 % 0.14 % 0.59 % 0.88 % 3.06 % 2017-01-01
754 lthor 3.06 % 0.01 % 0.05 % 0.11 % 3.06 % 2017-01-01
755 Kaufmanrider 3.04 % 0.01 % 0.66 % ** 1.49 % 3.04 % 2017-01-01
756 neptune 3.03 % 0.01 % 0.79 % 1.72 % 3.03 % 2017-01-01
757 tazzymt 3.03 % 0.10 % 0.79 % 1.76 % 3.03 % 2017-01-01
758 14ers 3.03 % 0.08 % 0.57 % ** 1.71 % 3.03 % 2017-01-01
759 les2l8 3.01 % 0.01 % 0.21 % 0.86 % 3.01 % 2017-01-01
760 lkatme 3.01 % 0.11 % 0.73 % ** 1.72 % 3.01 % 2017-01-01
761 Beagle * 3.00 % 0.17 % 1.60 % 3.22 % 3.00 % 2017-01-24
762 Booster 3.00 % 0.14 % -0.01 % 0.27 % 2.99 % 2017-01-01
763 Bmoredunks 3.00 % 0.10 % 0.79 % 1.68 % 3.00 % 2017-01-01
764 funkyhunky 3.00 % 0.07 % 1.20 % 2.79 % 3.00 % 2017-01-01
765 Cathy57 3.00 % 0.01 % 0.05 % 0.11 % 3.00 % 2017-01-01
766 olddog 3.00 % 0.01 % 0.05 % 0.11 % 3.00 % 2017-01-01
767 mickeyelk 3.00 % 0.16 % 1.28 % 3.16 % 3.00 % 2017-01-01
768 polarbear 2.98 % 0.01 % 0.05 % 1.02 % 2.98 % 2017-01-01
769 londi1tagaholy 2.97 % 0.09 % 0.88 % ** 1.85 % 2.97 % 2017-01-01
770 hotelyankee16 * 2.96 % 0.14 % 0.97 % 2.96 % 2.96 % 2017-01-31
771 Medic72 2.96 % 0.09 % 0.72 % ** 1.76 % 2.96 % 2017-01-01
772 ravenstreasures 2.96 % 0.12 % 0.69 % ** 1.77 % 2.96 % 2017-01-01
773 hotwings 2.95 % 0.10 % 0.52 % 1.71 % 2.95 % 2017-01-01
774 BArREttLEEMAKINIT 2.95 % 0.01 % 0.05 % 1.04 % 2.95 % 2017-01-01
775 timingbill 2.94 % 0.11 % 0.53 % ** 1.67 % 2.94 % 2017-01-01
776 gos3319 2.94 % 0.08 % 0.55 % ** 1.66 % 2.94 % 2017-01-01
777 frostybosty 2.93 % 0.14 % 1.13 % 1.43 % 2.93 % 2017-01-01
778 KinoFish * 2.91 % 0.14 % 0.97 % 2.41 % 2.91 % 2017-01-05
779 domino11 2.91 % 0.08 % 0.55 % ** 1.64 % 2.91 % 2017-01-01
780 parkbrau 2.90 % 0.00 % 0.61 % ** 1.42 % 2.90 % 2017-01-01
781 Renoir 2.90 % 0.05 % 0.68 % ** 1.59 % 2.90 % 2017-01-01
782 Luckycat 2.89 % 0.09 % 0.70 % ** 1.71 % 2.89 % 2017-01-01
783 rich1 2.89 % 0.14 % 0.50 % ** 1.65 % 2.89 % 2017-01-01
784 loco_lobo 2.88 % 0.14 % 0.97 % 2.64 % 2.88 % 2017-01-01
785 DaddyTin 2.87 % 0.14 % 0.97 % 2.76 % 2.87 % 2017-01-01
786 fossilbird 2.87 % 0.09 % 0.85 % ** 1.78 % 2.87 % 2017-01-01
787 dallashalos 2.86 % 0.06 % 0.95 % 1.72 % 2.86 % 2017-01-01
788 PublicServant * 2.84 % 0.08 % 1.26 % 2.84 % 2.84 % 2017-02-01
789 clester 2.84 % 0.09 % 0.84 % ** 1.77 % 2.84 % 2017-01-01
790 batman 2.83 % 0.11 % 0.93 % 2.14 % 2.83 % 2017-01-01
791 lsrodgers 2.83 % 0.07 % 0.68 % ** 1.57 % 2.83 % 2017-01-01
792 GoNoles 2.82 % 0.08 % 0.53 % ** 1.59 % 2.82 % 2017-01-01
793 Bowfish 2.81 % -0.01 % 1.11 % 2.46 % 2.81 % 2017-01-01
794 tataberto 2.81 % 0.08 % 0.65 % 1.65 % 2.81 % 2017-01-01
795 c130 2.81 % 0.01 % 0.05 % 0.64 % 2.81 % 2017-01-01
796 arrow_point 2.80 % 0.14 % 0.97 % 2.96 % 2.80 % 2017-01-01
797 Scrappy 2.78 % 0.03 % 0.55 % 1.93 % 2.78 % 2017-01-01
798 tetonshasta * 2.73 % 0.14 % 1.13 % 1.68 % 2.73 % 2017-01-17
799 kras 2.73 % 0.01 % 0.05 % 1.90 % 2.73 % 2017-01-01
800 Kentucky 2.73 % 0.02 % 0.63 % 1.42 % 2.73 % 2017-01-01
Rank Username YTD Returns Daily Returns WTD returns MTD Returns QTD Returns Start Date
801 insocova 2.73 % 0.16 % 1.28 % 3.16 % 2.73 % 2017-01-01
802 RushSlowly 2.72 % 0.14 % 0.97 % 2.20 % 2.72 % 2017-01-01
803 MoneyTalks 2.71 % 0.15 % 0.45 % 0.51 % 2.71 % 2017-01-01
804 alexkoonce 2.70 % 0.08 % 0.62 % ** 1.58 % 2.70 % 2017-01-01
805 Mustang2008 * 2.69 % 0.16 % 1.17 % 2.26 % 2.69 % 2017-01-09
806 Pmnick114 2.67 % 0.05 % 0.68 % ** 1.50 % 2.67 % 2017-01-01
807 Volfan 2.64 % 0.15 % -0.02 % 0.60 % 2.64 % 2017-01-01
808 thewingreaper 2.62 % 0.01 % 0.05 % 0.11 % 2.62 % 2017-01-01
809 PTSarge 2.62 % 0.15 % 0.71 % ** 1.64 % 2.62 % 2017-01-01
810 Wilycoyote 2.60 % 0.11 % 0.30 % 0.37 % 2.60 % 2017-01-01
811 Lynx 2.60 % 0.14 % 0.62 % 2.36 % 2.60 % 2017-01-01
812 Mlbplayer86 * 2.60 % 0.09 % 0.95 % 2.18 % 2.60 % 2017-01-17
813 FireWeatherMet 2.57 % 0.07 % 0.47 % 2.33 % 2.57 % 2017-01-01
814 BIGfRED 2.57 % 0.06 % 0.61 % ** 1.46 % 2.57 % 2017-01-01
815 1965Vintage * 2.55 % 0.01 % 0.90 % 0.96 % 2.55 % 2017-01-19
816 JaBlack 2.55 % 0.01 % 1.07 % 2.38 % 2.55 % 2017-01-01
817 tdekens * 2.54 % 0.16 % 1.28 % 2.54 % 2.54 % 2017-02-06
818 Cruser 2.53 % 0.01 % 0.05 % 0.11 % 2.53 % 2017-01-01
819 sdhoag13 2.52 % 0.11 % 0.90 % 1.35 % 2.52 % 2017-01-01
820 crhuss 2.52 % 0.07 % 0.61 % ** 1.49 % 2.52 % 2017-01-01
821 IndianaJones 2.51 % 0.05 % 0.42 % 1.96 % 2.51 % 2017-01-01
822 HollywoodNY 2.51 % 0.02 % 0.59 % ** 1.31 % 2.51 % 2017-01-01
823 Scraps 2.50 % 0.14 % 0.34 % 0.90 % 2.50 % 2017-01-01
824 1daybe * 2.50 % 0.14 % 0.97 % 2.50 % 2.50 % 2017-02-06
825 spapadopoulos 2.48 % 0.10 % 0.69 % 1.78 % 2.48 % 2017-01-01
826 RobinHood 2.48 % 0.01 % 0.41 % 0.41 % 2.48 % 2017-01-01
827 prisonguard224 2.48 % 0.01 % 0.05 % 0.11 % 2.48 % 2017-01-01
828 Butters 2.45 % 0.01 % 0.05 % 1.38 % 2.45 % 2017-01-01
829 DudeWayne 2.43 % 0.08 % 0.96 % 2.35 % 2.43 % 2017-01-01
830 arodiaz 2.43 % 0.08 % 0.55 % ** 1.32 % 2.43 % 2017-01-01
831 coinmanjack 2.42 % 0.03 % 0.60 % ** 1.30 % 2.42 % 2017-01-01
832 merlin 2.42 % 0.07 % 0.58 % ** 1.42 % 2.42 % 2017-01-01
833 Jason.Z 2.41 % 0.01 % 0.63 % 2.61 % 2.41 % 2017-01-01
834 bighurd51 2.41 % 0.14 % 1.11 % 2.39 % 2.41 % 2017-01-01
835 pamkk 2.40 % 0.05 % 0.30 % 0.36 % 2.40 % 2017-01-01
836 sanfran814 * 2.40 % 0.14 % 0.59 % 2.19 % 2.40 % 2017-01-05
837 ezcomeezgo 2.39 % 0.02 % 0.87 % 1.59 % 2.39 % 2017-01-01
838 TKMike 2.39 % 0.01 % 0.55 % 1.23 % 2.39 % 2017-01-01
839 Rundp 2.39 % 0.07 % 0.58 % ** 1.41 % 2.39 % 2017-01-01
840 Richard_Todd 2.38 % 0.07 % 1.20 % 1.71 % 2.38 % 2017-01-01
841 mbergevinjr 2.36 % 0.09 % 0.68 % 1.46 % 2.36 % 2017-01-01
842 boricua 2.35 % 0.16 % 0.51 % 0.57 % 2.35 % 2017-01-01
843 mrmaxd 2.34 % -0.13 % 0.46 % ** 0.77 % 2.34 % 2017-01-01
844 Gypsy55 2.32 % 0.16 % 0.19 % 0.79 % 2.32 % 2017-01-01
845 TradingJoe 2.31 % 0.01 % 0.54 % 1.32 % 2.31 % 2017-01-01
846 mrduckmd1 2.30 % 0.03 % 0.03 % 0.14 % 2.30 % 2017-01-01
847 ROCKMAXX 2.29 % 0.02 % 0.29 % 1.19 % 2.29 % 2017-01-01
848 Ducksrule 2.28 % -0.25 % 0.86 % 1.33 % 2.28 % 2017-01-01
849 Clue 2.28 % 0.14 % -0.01 % 0.17 % 2.28 % 2017-01-01
850 razorbckx 2.28 % 0.02 % 0.56 % ** 1.21 % 2.28 % 2017-01-01
Rank Username YTD Returns Daily Returns WTD returns MTD Returns QTD Returns Start Date
851 kitaw33 2.26 % 0.08 % 0.61 % 0.67 % 2.26 % 2017-01-01
852 JOSE123 2.26 % -0.12 % 0.44 % ** 0.75 % 2.26 % 2017-01-01
853 p3a 2.24 % 0.03 % 0.55 % 1.18 % 2.24 % 2017-01-01
854 BorderBlade 2.24 % 0.01 % 0.05 % 1.46 % 2.24 % 2017-01-01
855 homieg24 2.24 % 0.01 % 0.15 % 0.63 % 2.24 % 2017-01-01
856 Rainmaker44 2.24 % 0.03 % 0.55 % 1.18 % 2.24 % 2017-01-01
857 kevmanfoo 2.24 % 0.14 % -0.01 % 0.27 % 2.24 % 2017-01-01
858 L2020 2.24 % 0.03 % 0.55 % 1.18 % 2.24 % 2017-01-01
859 KevinD 2.24 % 0.03 % 0.55 % ** 1.18 % 2.24 % 2017-01-01
860 wornout 2.24 % 0.03 % 0.55 % ** 1.18 % 2.24 % 2017-01-01
861 derosafj 2.24 % 0.03 % 0.55 % ** 1.18 % 2.24 % 2017-01-01
862 dpardue 2.24 % 0.03 % 0.55 % ** 1.18 % 2.24 % 2017-01-01
863 REDNECK 2.22 % 0.07 % 0.54 % ** 1.30 % 2.22 % 2017-01-01
864 NavyGirl88 2.20 % 0.14 % 0.22 % 1.61 % 2.20 % 2017-01-01
865 Copedad * 2.20 % 0.07 % 0.70 % 2.02 % 2.20 % 2017-01-30
866 soupydoom 2.20 % 0.01 % 0.05 % 0.31 % 2.20 % 2017-01-01
867 wevodau 2.19 % 0.07 % 0.51 % 1.61 % 2.19 % 2017-01-01
868 BillD 2.19 % 0.06 % 0.52 % ** 1.24 % 2.19 % 2017-01-01
869 adamo 2.18 % 0.01 % 0.05 % 0.64 % 2.18 % 2017-01-01
870 dfaat * 2.17 % 0.14 % 0.97 % 2.17 % 2.17 % 2017-01-31
871 JABS 2.16 % 0.01 % 0.68 % 1.46 % 2.16 % 2017-01-01
872 Attila 2.16 % 0.01 % 1.15 % 1.95 % 2.16 % 2017-01-01
873 bmthomas0222 2.16 % 0.10 % 0.50 % ** 1.28 % 2.16 % 2017-01-01
874 wayne622 * 2.15 % -0.06 % 0.91 % 2.15 % 2.15 % 2017-01-31
875 modom07 * 2.14 % -0.05 % 0.92 % 2.14 % 2.14 % 2017-02-02
876 dillpickle * 2.13 % -0.25 % 0.86 % 1.41 % 2.13 % 2017-01-13
877 ArkHills 2.12 % 0.01 % 0.05 % 1.30 % 2.12 % 2017-01-01
878 sierrabravo11 * 2.11 % 0.05 % 1.10 % 2.67 % 2.11 %